createdAt,value
2022-08-08T00:01:06.519Z,56.48
2022-08-08T00:03:48.103Z,56.68
2022-08-08T00:06:28.644Z,56.95
2022-08-08T00:09:12.229Z,57.01
2022-08-08T00:11:46.704Z,57.11
2022-08-08T00:14:56.833Z,57.19
2022-08-08T00:18:01.610Z,57.30
2022-08-08T00:20:37.418Z,57.31
2022-08-08T00:23:08.173Z,57.24
2022-08-08T00:25:46.228Z,57.59
2022-08-08T00:28:35.955Z,57.45
2022-08-08T00:32:21.406Z,57.50
2022-08-08T00:34:20.056Z,57.86
2022-08-08T00:36:54.773Z,57.92
2022-08-08T00:41:07.077Z,57.74
2022-08-08T00:42:42.099Z,57.94
2022-08-08T00:45:42.598Z,58.07
2022-08-08T00:48:33.800Z,58.01
2022-08-08T00:51:38.294Z,58.29
2022-08-08T00:54:55.068Z,58.36
2022-08-08T00:58:13.871Z,58.50
2022-08-08T01:00:50.581Z,58.66
2022-08-08T01:04:02.672Z,58.50
2022-08-08T01:07:10.682Z,58.92
2022-08-08T01:10:26.366Z,58.57
2022-08-08T01:13:14.979Z,58.71
2022-08-08T01:16:00.241Z,58.71
2022-08-08T01:19:13.509Z,58.93
2022-08-08T01:22:23.618Z,58.94
2022-08-08T01:25:40.811Z,59.29
2022-08-08T01:28:28.169Z,59.38
2022-08-08T01:32:05.201Z,59.30
2022-08-08T01:34:44.874Z,59.12
2022-08-08T01:37:59.059Z,59.16
2022-08-08T01:40:29.361Z,59.20
2022-08-08T01:43:05.034Z,59.26
2022-08-08T01:45:56.071Z,59.22
2022-08-08T01:48:36.362Z,59.49
2022-08-08T01:51:30.060Z,59.42
2022-08-08T01:55:45.100Z,59.41
2022-08-08T01:57:17.300Z,59.55
2022-08-08T02:00:12.901Z,59.55
2022-08-08T02:02:57.282Z,59.87
2022-08-08T02:05:55.534Z,59.81
2022-08-08T02:08:33.899Z,59.80
2022-08-08T02:11:07.290Z,60.08
2022-08-08T02:13:56.123Z,60.39
2022-08-08T02:16:28.497Z,60.29
2022-08-08T02:19:09.968Z,60.36
2022-08-08T02:22:13.581Z,60.30
2022-08-08T02:24:51.728Z,60.18
2022-08-08T02:27:20.610Z,60.33
2022-08-08T02:30:04.369Z,60.25
2022-08-08T02:32:46.741Z,59.73
2022-08-08T02:36:03.374Z,60.11
2022-08-08T02:38:55.281Z,60.69
2022-08-08T02:42:04.661Z,60.92
2022-08-08T02:45:18.557Z,61.05
2022-08-08T02:48:25.743Z,60.99
2022-08-08T02:51:55.482Z,61.02
2022-08-08T02:55:04.517Z,60.76
2022-08-08T02:58:10.270Z,61.40
2022-08-08T03:01:14.899Z,61.06
2022-08-08T03:05:03.068Z,61.26
2022-08-08T03:08:01.638Z,61.37
2022-08-08T03:10:53.811Z,61.23
2022-08-08T03:16:02.467Z,61.07
2022-08-08T03:16:38.893Z,61.02
2022-08-08T03:19:51.345Z,61.19
2022-08-08T03:22:48.113Z,61.31
2022-08-08T03:25:17.803Z,61.13
2022-08-08T03:27:57.043Z,60.80
2022-08-08T03:30:25.932Z,61.00
2022-08-08T03:33:56.042Z,61.00
2022-08-08T03:35:59.873Z,60.93
2022-08-08T03:38:57.987Z,60.99
2022-08-08T03:42:11.962Z,61.18
2022-08-08T03:44:06.315Z,61.07
2022-08-08T03:46:44.668Z,61.59
2022-08-08T03:49:58.078Z,61.75
2022-08-08T03:52:07.543Z,62.12
2022-08-08T03:55:02.145Z,62.24
2022-08-08T03:58:31.720Z,62.67
2022-08-08T04:00:21.957Z,62.77
2022-08-08T04:02:59.445Z,63.19
2022-08-08T04:05:29.351Z,63.23
2022-08-08T04:07:58.125Z,63.34
2022-08-08T04:10:32.345Z,63.65
2022-08-08T04:13:17.347Z,63.68
2022-08-08T04:15:54.725Z,64.04
2022-08-08T04:18:32.266Z,63.98
2022-08-08T04:21:00.107Z,64.11
2022-08-08T04:23:33.414Z,64.25
2022-08-08T04:26:16.694Z,64.46
2022-08-08T04:28:48.624Z,64.53
2022-08-08T04:31:30.707Z,64.62
2022-08-08T04:34:10.044Z,64.80
2022-08-08T04:36:37.973Z,64.87
2022-08-08T04:39:48.088Z,65.22
2022-08-08T04:41:53.613Z,65.27
2022-08-08T04:44:26.714Z,65.48
2022-08-08T04:46:55.151Z,65.16
2022-08-08T04:49:28.842Z,65.44
2022-08-08T04:52:13.477Z,65.55
2022-08-08T04:54:42.580Z,65.73
2022-08-08T04:57:10.543Z,65.78
2022-08-08T04:59:42.474Z,65.97
2022-08-08T05:02:13.755Z,65.69
2022-08-08T05:04:44.296Z,66.02
2022-08-08T05:07:14.821Z,65.75
2022-08-08T05:09:43.199Z,66.00
2022-08-08T05:12:20.667Z,65.95
2022-08-08T05:14:52.312Z,66.37
2022-08-08T05:17:21.030Z,66.22
2022-08-08T05:20:10.417Z,66.42
2022-08-08T05:22:37.076Z,66.56
2022-08-08T05:25:05.376Z,66.67
2022-08-08T05:27:41.064Z,66.67
2022-08-08T05:30:12.226Z,66.97
2022-08-08T05:32:40.562Z,66.93
2022-08-08T05:35:13.595Z,66.88
2022-08-08T05:37:53.224Z,66.74
2022-08-08T05:40:28.149Z,66.86
2022-08-08T05:43:02.130Z,66.78
2022-08-08T05:45:43.195Z,66.86
2022-08-08T05:48:28.324Z,66.99
2022-08-08T05:51:14.794Z,66.86
2022-08-08T05:54:25.841Z,66.94
2022-08-08T05:56:37.371Z,67.06
2022-08-08T05:59:12.513Z,67.11
2022-08-08T06:01:55.388Z,67.05
2022-08-08T06:04:27.133Z,66.92
2022-08-08T06:07:00.574Z,67.21
2022-08-08T06:10:00.532Z,67.14
2022-08-08T06:12:30.341Z,67.13
2022-08-08T06:14:59.443Z,67.43
2022-08-08T06:17:32.118Z,67.69
2022-08-08T06:20:16.622Z,67.23
2022-08-08T06:22:47.383Z,67.32
2022-08-08T06:25:18.147Z,67.44
2022-08-08T06:27:48.852Z,67.47
2022-08-08T06:30:20.334Z,67.06
2022-08-08T06:33:01.330Z,67.08
2022-08-08T06:36:08.192Z,67.66
2022-08-08T06:38:21.349Z,67.15
2022-08-08T06:40:59.218Z,67.16
2022-08-08T06:43:30.694Z,67.01
2022-08-08T06:46:02.784Z,66.79
2022-08-08T06:48:32.307Z,66.74
2022-08-08T06:52:36.528Z,66.76
2022-08-08T06:55:11.240Z,66.80
2022-08-08T06:57:54.879Z,66.89
2022-08-08T07:00:30.345Z,66.69
2022-08-08T07:03:01.538Z,66.62
2022-08-08T07:05:40.172Z,66.54
2022-08-08T07:08:16.429Z,66.13
2022-08-08T07:10:48.816Z,65.52
2022-08-08T07:13:18.703Z,65.37
2022-08-08T07:16:05.351Z,65.36
2022-08-08T07:18:43.889Z,65.15
2022-08-08T07:21:20.391Z,64.94
2022-08-08T07:24:00.907Z,64.38
2022-08-08T07:26:35.376Z,63.94
2022-08-08T07:29:05.904Z,64.19
2022-08-08T07:31:36.814Z,64.20
2022-08-08T07:34:09.237Z,63.63
2022-08-08T07:36:37.325Z,63.33
2022-08-08T07:39:13.378Z,62.67
2022-08-08T07:42:03.555Z,62.31
2022-08-08T07:44:36.954Z,63.04
2022-08-08T07:47:08.836Z,62.87
2022-08-08T07:49:39.922Z,62.33
2022-08-08T07:52:13.333Z,61.13
2022-08-08T07:54:58.811Z,60.59
2022-08-08T07:57:36.158Z,60.80
2022-08-08T08:00:13.468Z,59.72
2022-08-08T08:02:45.857Z,59.78
2022-08-08T08:05:19.823Z,60.03
2022-08-08T08:07:54.586Z,60.40
2022-08-08T08:10:30.390Z,60.00
2022-08-08T08:13:25.595Z,60.15
2022-08-08T08:16:12.443Z,58.76
2022-08-08T08:18:51.624Z,58.57
2022-08-08T08:21:20.623Z,58.53
2022-08-08T08:24:08.885Z,59.53
2022-08-08T08:26:39.787Z,58.20
2022-08-08T08:29:20.164Z,57.40
2022-08-08T08:31:57.877Z,57.61
2022-08-08T08:34:31.948Z,56.15
2022-08-08T08:37:07.592Z,56.08
2022-08-08T08:40:00.205Z,55.87
2022-08-08T08:42:31.947Z,56.40
2022-08-08T08:45:21.495Z,56.76
2022-08-08T08:47:54.321Z,56.15
2022-08-08T08:50:32.448Z,54.88
2022-08-08T08:53:04.734Z,54.66
2022-08-08T08:55:39.310Z,54.58
2022-08-08T08:58:09.918Z,55.00
2022-08-08T09:00:56.205Z,56.65
2022-08-08T09:03:45.932Z,56.49
2022-08-08T09:06:28.215Z,55.32
2022-08-08T09:09:04.888Z,53.16
2022-08-08T09:11:35.318Z,52.97
2022-08-08T09:14:17.703Z,51.15
2022-08-08T09:16:45.816Z,51.06
2022-08-08T09:19:29.136Z,51.15
2022-08-08T09:22:06.704Z,51.13
2022-08-08T09:24:35.689Z,52.09
2022-08-08T09:27:14.739Z,51.14
2022-08-08T09:29:52.869Z,50.51
2022-08-08T09:32:37.030Z,51.18
2022-08-08T09:35:08.600Z,48.33
2022-08-08T09:38:01.874Z,48.85
2022-08-08T09:40:46.428Z,48.77
2022-08-08T09:43:40.843Z,49.23
2022-08-08T09:46:25.576Z,49.57
2022-08-08T09:49:18.544Z,51.47
2022-08-08T09:52:07.127Z,48.91
2022-08-08T09:54:44.082Z,48.53
2022-08-08T09:57:16.520Z,48.18
2022-08-08T09:59:57.172Z,49.06
2022-08-08T10:02:37.366Z,49.08
2022-08-08T10:05:15.043Z,49.43
2022-08-08T10:07:59.987Z,49.47
2022-08-08T10:10:31.497Z,48.77
2022-08-08T10:13:13.865Z,50.26
2022-08-08T10:16:00.687Z,49.17
2022-08-08T10:18:33.564Z,49.72
2022-08-08T10:21:23.285Z,49.32
2022-08-08T10:23:58.348Z,49.63
2022-08-08T10:26:58.616Z,49.70
2022-08-08T10:29:24.974Z,51.24
2022-08-08T10:32:16.053Z,50.27
2022-08-08T10:34:57.158Z,50.42
2022-08-08T10:37:30.257Z,49.27
2022-08-08T10:39:59.713Z,48.87
2022-08-08T10:42:35.483Z,48.42
2022-08-08T10:45:09.252Z,49.21
2022-08-08T10:47:43.843Z,50.25
2022-08-08T10:50:17.412Z,48.03
2022-08-08T10:52:45.333Z,49.47
2022-08-08T10:55:39.791Z,50.14
2022-08-08T10:58:08.232Z,49.48
2022-08-08T11:00:52.383Z,47.79
2022-08-08T11:03:36.983Z,48.30
2022-08-08T11:06:17.336Z,48.74
2022-08-08T11:08:53.620Z,49.21
2022-08-08T11:11:59.748Z,49.20
2022-08-08T11:14:12.291Z,49.12
2022-08-08T11:16:46.856Z,49.07
2022-08-08T11:19:17.100Z,48.97
2022-08-08T11:21:56.299Z,47.94
2022-08-08T11:24:26.961Z,47.10
2022-08-08T11:26:57.878Z,46.41
2022-08-08T11:29:41.408Z,46.61
2022-08-08T11:32:16.461Z,45.60
2022-08-08T11:35:08.856Z,44.85
2022-08-08T11:38:35.227Z,46.26
2022-08-08T11:40:26.527Z,45.87
2022-08-08T11:42:55.761Z,45.97
2022-08-08T11:45:23.975Z,46.68
2022-08-08T11:48:02.566Z,46.89
2022-08-08T11:50:34.287Z,45.80
2022-08-08T11:53:06.022Z,45.59
2022-08-08T11:55:36.529Z,45.58
2022-08-08T11:58:15.047Z,46.70
2022-08-08T12:00:47.331Z,46.02
2022-08-08T12:03:20.889Z,46.59
2022-08-08T12:05:48.946Z,48.27
2022-08-08T12:08:18.976Z,47.66
2022-08-08T12:10:48.030Z,48.05
2022-08-08T12:13:17.453Z,45.47
2022-08-08T12:15:49.156Z,44.49
2022-08-08T12:18:21.358Z,44.64
2022-08-08T12:20:53.297Z,44.64
2022-08-08T12:23:44.059Z,44.94
2022-08-08T12:26:28.485Z,44.49
2022-08-08T12:29:21.448Z,44.68
2022-08-08T12:31:53.551Z,44.79
2022-08-08T12:34:37.425Z,46.21
2022-08-08T12:37:08.276Z,45.03
2022-08-08T12:40:01.973Z,44.85
2022-08-08T12:42:27.322Z,45.42
2022-08-08T12:45:54.973Z,44.87
2022-08-08T12:48:10.601Z,48.27
2022-08-08T12:50:49.391Z,47.89
2022-08-08T12:53:24.847Z,46.67
2022-08-08T12:56:19.449Z,45.51
2022-08-08T12:58:54.613Z,45.19
2022-08-08T13:01:34.960Z,42.94
2022-08-08T13:04:18.322Z,43.75
2022-08-08T13:07:05.301Z,43.58
2022-08-08T13:10:00.699Z,43.33
2022-08-08T13:12:29.867Z,43.48
2022-08-08T13:14:58.711Z,44.92
2022-08-08T13:18:08.298Z,44.03
2022-08-08T13:20:17.402Z,42.73
2022-08-08T13:22:46.123Z,43.86
2022-08-08T13:25:18.859Z,43.60
2022-08-08T13:27:54.555Z,43.26
2022-08-08T13:30:26.383Z,42.52
2022-08-08T13:32:56.503Z,42.17
2022-08-08T13:35:29.621Z,42.25
2022-08-08T13:38:12.944Z,42.75
2022-08-08T13:40:44.637Z,42.53
2022-08-08T13:43:16.027Z,42.51
2022-08-08T13:45:47.189Z,41.83
2022-08-08T13:48:16.968Z,41.29
2022-08-08T13:50:52.397Z,42.25
2022-08-08T13:53:34.186Z,42.57
2022-08-08T13:56:11.830Z,41.59
2022-08-08T13:58:57.407Z,41.41
2022-08-08T14:01:41.866Z,41.68
2022-08-08T14:04:22.384Z,42.43
2022-08-08T14:06:50.951Z,43.41
2022-08-08T14:09:29.570Z,45.25
2022-08-08T14:11:58.873Z,43.41
2022-08-08T14:14:37.705Z,43.09
2022-08-08T14:17:11.724Z,41.34
2022-08-08T14:19:57.839Z,42.49
2022-08-08T14:22:38.338Z,41.94
2022-08-08T14:25:15.363Z,41.71
2022-08-08T14:27:59.785Z,41.48
2022-08-08T14:30:34.830Z,41.88
2022-08-08T14:33:02.877Z,41.19
2022-08-08T14:35:41.652Z,41.29
2022-08-08T14:38:34.421Z,42.87
2022-08-08T14:40:59.917Z,41.55
2022-08-08T14:44:10.294Z,41.17
2022-08-08T14:46:22.319Z,43.15
2022-08-08T14:49:09.393Z,41.60
2022-08-08T14:51:53.193Z,42.18
2022-08-08T14:54:28.726Z,41.85
2022-08-08T14:56:58.414Z,41.89
2022-08-08T14:59:43.688Z,42.39
2022-08-08T15:02:14.088Z,42.52
2022-08-08T15:04:43.476Z,42.51
2022-08-08T15:07:24.239Z,41.94
2022-08-08T15:10:00.944Z,42.75
2022-08-08T15:12:28.662Z,42.08
2022-08-08T15:14:57.895Z,43.26
2022-08-08T15:17:25.893Z,43.64
2022-08-08T15:19:54.287Z,43.51
2022-08-08T15:22:23.752Z,45.03
2022-08-08T15:24:51.726Z,44.20
2022-08-08T15:27:57.841Z,45.08
2022-08-08T15:30:12.540Z,45.17
2022-08-08T15:32:44.950Z,42.94
2022-08-08T15:35:13.054Z,42.27
2022-08-08T15:37:44.040Z,42.98
2022-08-08T15:40:15.083Z,44.18
2022-08-08T15:42:47.583Z,42.57
2022-08-08T15:45:23.078Z,42.15
2022-08-08T15:48:15.130Z,41.98
2022-08-08T15:51:01.197Z,41.97
2022-08-08T15:53:33.247Z,41.56
2022-08-08T15:56:17.185Z,43.61
2022-08-08T15:58:50.232Z,41.99
2022-08-08T16:02:00.599Z,41.76
2022-08-08T16:04:29.693Z,42.59
2022-08-08T16:06:57.683Z,41.69
2022-08-08T16:13:03.639Z,42.12
2022-08-08T16:13:04.077Z,42.28
2022-08-08T16:15:04.983Z,42.52
2022-08-08T16:17:38.934Z,42.63
2022-08-08T16:20:22.038Z,42.14
2022-08-08T16:22:52.153Z,42.81
2022-08-08T16:25:20.334Z,41.80
2022-08-08T16:27:57.774Z,42.25
2022-08-08T16:30:36.472Z,41.68
2022-08-08T16:33:06.034Z,42.37
2022-08-08T16:35:37.141Z,42.74
2022-08-08T16:38:04.812Z,42.81
2022-08-08T16:40:38.128Z,43.05
2022-08-08T16:43:08.461Z,43.37
2022-08-08T16:46:44.743Z,43.89
2022-08-08T16:48:26.416Z,44.21
2022-08-08T16:51:02.650Z,44.51
2022-08-08T16:55:18.389Z,44.77
2022-08-08T16:56:18.507Z,45.24
2022-08-08T16:58:49.959Z,45.33
2022-08-08T17:01:17.803Z,45.63
2022-08-08T17:03:59.505Z,46.12
2022-08-08T17:06:37.305Z,46.22
2022-08-08T17:09:14.874Z,46.14
2022-08-08T17:11:48.764Z,46.15
2022-08-08T17:14:27.517Z,46.61
2022-08-08T17:17:03.073Z,46.38
2022-08-08T17:19:40.837Z,46.44
2022-08-08T17:22:10.008Z,46.47
2022-08-08T17:24:37.737Z,46.81
2022-08-08T17:27:07.517Z,46.80
2022-08-08T17:29:36.256Z,46.66
2022-08-08T17:32:05.904Z,46.77
2022-08-08T17:34:59.731Z,46.66
2022-08-08T17:37:27.815Z,46.85
2022-08-08T17:40:10.477Z,47.00
2022-08-08T17:42:47.205Z,47.01
2022-08-08T17:45:23.572Z,46.13
2022-08-08T17:47:52.293Z,46.56
2022-08-08T17:50:24.681Z,46.17
2022-08-08T17:52:53.394Z,46.41
2022-08-08T17:56:05.013Z,46.22
2022-08-08T17:58:12.319Z,46.56
2022-08-08T18:00:41.508Z,46.42
2022-08-08T18:03:13.121Z,46.14
2022-08-08T18:05:44.091Z,46.12
2022-08-08T18:08:37.813Z,46.02
2022-08-08T18:11:11.554Z,46.40
2022-08-08T18:13:42.699Z,46.42
2022-08-08T18:16:11.410Z,46.58
2022-08-08T18:18:42.689Z,46.67
2022-08-08T18:21:25.150Z,46.53
2022-08-08T18:24:03.442Z,45.83
2022-08-08T18:26:31.248Z,45.13
2022-08-08T18:29:01.675Z,45.75
2022-08-08T18:31:29.509Z,45.67
2022-08-08T18:34:12.331Z,45.98
2022-08-08T18:36:47.644Z,46.02
2022-08-08T18:39:16.615Z,46.47
2022-08-08T18:42:02.827Z,46.43
2022-08-08T18:44:33.016Z,47.05
2022-08-08T18:47:05.137Z,47.64
2022-08-08T18:49:41.019Z,47.65
2022-08-08T18:52:26.200Z,48.00
2022-08-08T18:55:00.953Z,48.34
2022-08-08T18:57:42.075Z,48.36
2022-08-08T19:00:16.802Z,48.72
2022-08-08T19:02:56.715Z,48.61
2022-08-08T19:05:31.965Z,49.05
2022-08-08T19:08:09.518Z,49.40
2022-08-08T19:10:37.467Z,49.79
2022-08-08T19:13:20.734Z,50.01
2022-08-08T19:15:51.889Z,50.20
2022-08-08T19:18:30.733Z,50.51
2022-08-08T19:21:01.441Z,50.39
2022-08-08T19:23:30.486Z,50.72
2022-08-08T19:26:29.701Z,51.06
2022-08-08T19:28:50.855Z,51.20
2022-08-08T19:31:19.862Z,51.30
2022-08-08T19:34:04.394Z,51.82
2022-08-08T19:36:40.035Z,51.69
2022-08-08T19:39:14.630Z,52.04
2022-08-08T19:41:42.841Z,52.14
2022-08-08T19:44:12.876Z,52.46
2022-08-08T19:46:54.204Z,52.48
2022-08-08T19:49:24.443Z,52.62
2022-08-08T19:51:53.910Z,52.58
2022-08-08T19:54:23.022Z,52.94
2022-08-08T19:56:50.683Z,52.89
2022-08-08T19:59:22.568Z,53.00
2022-08-08T20:02:03.052Z,53.33
2022-08-08T20:04:31.923Z,53.36
2022-08-08T20:07:05.407Z,53.45
2022-08-08T20:09:55.767Z,53.54
2022-08-08T20:12:32.957Z,53.86
2022-08-08T20:15:14.561Z,54.00
2022-08-08T20:17:46.266Z,54.19
2022-08-08T20:20:19.125Z,54.28
2022-08-08T20:22:49.003Z,54.57
2022-08-08T20:25:24.745Z,54.70
2022-08-08T20:27:57.795Z,54.61
2022-08-08T20:30:52.780Z,54.63
2022-08-08T20:35:58.108Z,54.91
2022-08-08T20:38:29.256Z,54.97
2022-08-08T20:41:05.693Z,55.11
2022-08-08T20:43:48.357Z,55.45
2022-08-08T20:46:20.252Z,55.25
2022-08-08T20:48:49.084Z,55.28
2022-08-08T20:51:17.613Z,55.52
2022-08-08T20:54:00.657Z,55.67
2022-08-08T20:56:35.699Z,56.03
2022-08-08T20:59:24.745Z,55.59
2022-08-08T21:02:07.062Z,55.94
2022-08-08T21:04:37.165Z,56.01
2022-08-08T21:07:08.258Z,56.26
2022-08-08T21:10:01.354Z,56.17
2022-08-08T21:12:33.077Z,56.40
2022-08-08T21:15:07.096Z,56.35
2022-08-08T21:17:35.699Z,56.57
2022-08-08T21:20:05.514Z,56.48
2022-08-08T21:22:33.210Z,56.64
2022-08-08T21:25:02.656Z,56.59
2022-08-08T21:28:06.581Z,56.69
2022-08-08T21:30:24.693Z,56.73
2022-08-08T21:32:53.384Z,56.96
2022-08-08T21:36:14.715Z,56.99
2022-08-08T21:38:16.794Z,56.75
2022-08-08T21:40:56.491Z,56.67
2022-08-08T21:43:33.009Z,56.73
2022-08-08T21:48:08.145Z,57.00
2022-08-08T21:48:51.946Z,57.02
2022-08-08T21:54:18.297Z,57.42
2022-08-08T21:54:33.711Z,57.37
2022-08-08T21:56:59.259Z,57.24
2022-08-08T22:00:01.512Z,57.31
2022-08-08T22:02:22.801Z,57.30
2022-08-08T22:04:52.173Z,57.25
2022-08-08T22:07:19.975Z,58.14
2022-08-08T22:09:54.968Z,60.25
2022-08-08T22:12:22.704Z,60.88
2022-08-08T22:14:54.370Z,61.54
2022-08-08T22:17:22.072Z,61.24
2022-08-08T22:20:12.555Z,62.62
2022-08-08T22:22:38.732Z,63.80
2022-08-08T22:25:24.371Z,63.09
2022-08-08T22:28:02.860Z,61.44
2022-08-08T22:30:34.282Z,61.56
2022-08-08T22:33:02.643Z,62.55
2022-08-08T22:36:05.157Z,62.70
2022-08-08T22:38:24.709Z,62.88
2022-08-08T22:40:52.347Z,62.17
2022-08-08T22:43:20.132Z,62.23
2022-08-08T22:45:52.535Z,63.36
2022-08-08T22:48:21.549Z,62.48
2022-08-08T22:50:50.149Z,63.14
2022-08-08T22:54:29.622Z,63.50
2022-08-08T22:56:07.116Z,63.04
2022-08-08T22:58:35.276Z,62.93
2022-08-08T23:01:33.698Z,62.78
2022-08-08T23:03:56.832Z,62.84
2022-08-08T23:06:25.075Z,62.18
2022-08-08T23:08:58.077Z,63.53
2022-08-08T23:11:58.030Z,64.15
2022-08-08T23:14:17.175Z,62.75
2022-08-08T23:16:53.324Z,62.81
2022-08-08T23:19:27.072Z,62.53
2022-08-08T23:21:54.959Z,63.21
2022-08-08T23:24:23.695Z,64.01
2022-08-08T23:26:53.383Z,63.81
2022-08-08T23:29:24.107Z,63.63
2022-08-08T23:31:53.163Z,63.52
2022-08-08T23:34:21.927Z,63.55
2022-08-08T23:36:56.545Z,64.40
2022-08-08T23:39:26.572Z,63.64
2022-08-08T23:42:00.690Z,63.62
2022-08-08T23:44:30.042Z,63.83
2022-08-08T23:49:06.569Z,63.26
2022-08-08T23:50:02.754Z,63.70
2022-08-08T23:52:31.180Z,62.90
2022-08-08T23:55:07.259Z,62.33
2022-08-08T23:57:52.087Z,62.98
